createdAt,value
2019-04-07T00:01:39.950Z,6.60
2019-04-07T00:04:09.325Z,6.60
2019-04-07T00:06:42.873Z,6.50
2019-04-07T00:09:12.539Z,6.40
2019-04-07T00:11:42.795Z,6.40
2019-04-07T00:14:12.638Z,6.40
2019-04-07T00:16:44.824Z,6.60
2019-04-07T00:19:14.197Z,6.60
2019-04-07T00:21:44.272Z,6.60
2019-04-07T00:24:13.639Z,6.60
2019-04-07T00:26:42.887Z,6.60
2019-04-07T00:29:12.062Z,6.60
2019-04-07T00:31:42.283Z,6.60
2019-04-07T00:34:13.384Z,6.40
2019-04-07T00:36:43.675Z,6.20
2019-04-07T00:39:12.793Z,6.20
2019-04-07T00:41:42.877Z,6.10
2019-04-07T00:44:12.520Z,6.00
2019-04-07T00:46:42.715Z,5.90
2019-04-07T00:49:13.122Z,5.90
2019-04-07T00:51:42.302Z,5.80
2019-04-07T00:54:11.514Z,5.90
2019-04-07T00:56:42.297Z,5.80
2019-04-07T00:59:11.651Z,5.90
2019-04-07T01:01:42.561Z,6.00
2019-04-07T01:04:12.253Z,6.10
2019-04-07T01:06:41.588Z,6.20
2019-04-07T01:09:12.345Z,6.10
2019-04-07T01:11:42.115Z,5.90
2019-04-07T01:14:12.413Z,5.80
2019-04-07T01:16:41.806Z,5.70
2019-04-07T01:19:10.951Z,5.70
2019-04-07T01:21:41.968Z,6.00
2019-04-07T01:24:13.289Z,6.10
2019-04-07T01:26:44.692Z,5.90
2019-04-07T01:29:18.367Z,5.80
2019-04-07T01:31:48.471Z,5.70
2019-04-07T01:34:19.598Z,6.00
2019-04-07T01:36:50.092Z,6.20
2019-04-07T01:39:19.466Z,6.80
2019-04-07T01:41:53.713Z,7.00
2019-04-07T01:44:41.125Z,7.10
2019-04-07T01:47:12.341Z,7.00
2019-04-07T01:49:47.647Z,6.60
2019-04-07T01:52:18.408Z,6.30
2019-04-07T01:54:57.904Z,6.00
2019-04-07T01:57:28.996Z,5.70
2019-04-07T02:00:11.303Z,5.50
2019-04-07T02:02:42.096Z,5.40
2019-04-07T02:05:22.047Z,5.40
2019-04-07T02:07:56.547Z,5.40
2019-04-07T02:10:44.471Z,6.20
2019-04-07T02:13:15.570Z,6.00
2019-04-07T02:15:49.392Z,5.60
2019-04-07T02:18:24.717Z,5.50
2019-04-07T02:21:07.288Z,5.40
2019-04-07T02:23:54.822Z,5.40
2019-04-07T02:26:26.804Z,5.20
2019-04-07T02:29:15.631Z,5.20
2019-04-07T02:31:55.264Z,5.40
2019-04-07T02:34:30.014Z,5.80
2019-04-07T02:37:04.784Z,6.10
2019-04-07T02:39:42.159Z,5.80
2019-04-07T02:42:13.156Z,5.60
2019-04-07T02:44:53.868Z,5.70
2019-04-07T02:47:31.290Z,5.70
2019-04-07T02:50:10.119Z,6.10
2019-04-07T02:52:41.998Z,6.60
2019-04-07T02:55:19.352Z,7.00
2019-04-07T02:57:52.805Z,7.50
2019-04-07T03:00:27.859Z,7.30
2019-04-07T03:03:14.624Z,7.20
2019-04-07T03:05:48.118Z,7.20
2019-04-07T03:08:18.906Z,7.10
2019-04-07T03:10:57.142Z,6.70
2019-04-07T03:13:29.073Z,6.40
2019-04-07T03:16:05.899Z,7.20
2019-04-07T03:18:42.624Z,7.30
2019-04-07T03:21:19.774Z,7.00
2019-04-07T03:24:02.570Z,6.90
2019-04-07T03:26:49.808Z,6.70
2019-04-07T03:29:23.961Z,6.40
2019-04-07T03:32:00.473Z,6.20
2019-04-07T03:34:33.610Z,6.20
2019-04-07T03:37:23.067Z,6.00
2019-04-07T03:39:42.536Z,5.80
2019-04-07T03:42:24.941Z,5.60
2019-04-07T03:45:06.081Z,5.70
2019-04-07T03:47:39.768Z,5.90
2019-04-07T03:50:31.548Z,5.70
2019-04-07T03:53:14.365Z,5.60
2019-04-07T03:55:49.513Z,5.70
2019-04-07T03:58:26.295Z,5.60
2019-04-07T04:01:18.315Z,5.50
2019-04-07T04:03:49.472Z,5.50
2019-04-07T04:06:34.106Z,5.50
2019-04-07T04:09:22.251Z,5.60
2019-04-07T04:12:01.127Z,5.40
2019-04-07T04:14:44.143Z,5.20
2019-04-07T04:17:16.338Z,5.20
2019-04-07T04:19:47.190Z,5.30
2019-04-07T04:22:19.090Z,5.40
2019-04-07T04:24:50.279Z,5.50
2019-04-07T04:27:20.393Z,5.70
2019-04-07T04:29:53.046Z,5.70
2019-04-07T04:32:23.043Z,5.70
2019-04-07T04:34:53.221Z,5.70
2019-04-07T04:37:37.744Z,5.60
2019-04-07T04:39:58.247Z,5.40
2019-04-07T04:42:31.182Z,5.20
2019-04-07T04:45:12.159Z,5.10
2019-04-07T04:47:53.689Z,5.00
2019-04-07T04:50:25.801Z,4.90
2019-04-07T04:52:57.074Z,4.80
2019-04-07T04:55:31.874Z,4.80
2019-04-07T04:58:04.179Z,4.70
2019-04-07T05:00:34.135Z,4.60
2019-04-07T05:03:03.614Z,4.70
2019-04-07T05:05:35.683Z,4.80
2019-04-07T05:08:06.840Z,4.90
2019-04-07T05:10:38.952Z,5.10
2019-04-07T05:13:11.319Z,5.30
2019-04-07T05:15:43.370Z,5.60
2019-04-07T05:18:14.227Z,5.80
2019-04-07T05:20:45.347Z,5.90
2019-04-07T05:23:15.065Z,6.00
2019-04-07T05:25:48.101Z,6.20
2019-04-07T05:28:17.892Z,6.30
2019-04-07T05:30:48.072Z,6.50
2019-04-07T05:33:17.579Z,6.70
2019-04-07T05:35:48.592Z,6.90
2019-04-07T05:38:21.246Z,7.00
2019-04-07T05:40:50.985Z,7.10
2019-04-07T05:43:21.573Z,7.20
2019-04-07T05:45:50.974Z,7.40
2019-04-07T05:48:22.711Z,7.60
2019-04-07T05:50:53.792Z,7.60
2019-04-07T05:53:24.525Z,8.00
2019-04-07T05:55:55.573Z,8.30
2019-04-07T05:58:27.819Z,8.50
2019-04-07T06:01:00.257Z,8.80
2019-04-07T06:03:31.807Z,9.00
2019-04-07T06:06:02.865Z,9.10
2019-04-07T06:08:37.662Z,9.10
2019-04-07T06:11:07.970Z,9.20
2019-04-07T06:13:39.151Z,9.40
2019-04-07T06:16:22.621Z,9.50
2019-04-07T06:18:54.314Z,9.50
2019-04-07T06:24:42.627Z,9.80
2019-04-07T06:27:16.993Z,10.10
2019-04-07T06:29:45.697Z,10.40
2019-04-07T06:32:15.362Z,10.60
2019-04-07T06:34:50.661Z,10.90
2019-04-07T06:39:57.065Z,11.20
2019-04-07T06:42:34.081Z,11.00
2019-04-07T06:45:12.948Z,10.80
2019-04-07T06:47:47.068Z,10.70
2019-04-07T06:50:17.956Z,10.60
2019-04-07T06:52:59.388Z,10.60
2019-04-07T06:55:58.184Z,10.60
2019-04-07T06:58:46.547Z,10.70
2019-04-07T07:01:25.777Z,11.00
2019-04-07T07:04:12.663Z,10.90
2019-04-07T07:06:48.427Z,10.90
2019-04-07T07:09:31.841Z,11.10
2019-04-07T07:12:18.292Z,11.00
2019-04-07T07:14:45.939Z,11.10
2019-04-07T07:17:41.362Z,11.20
2019-04-07T07:20:21.811Z,11.10
2019-04-07T07:22:56.152Z,11.10
2019-04-07T07:25:29.825Z,11.20
2019-04-07T07:28:03.291Z,11.30
2019-04-07T07:30:32.393Z,11.50
2019-04-07T07:33:02.889Z,11.60
2019-04-07T07:35:35.134Z,11.60
2019-04-07T07:38:05.977Z,11.50
2019-04-07T07:40:42.628Z,11.70
2019-04-07T07:43:13.218Z,12.10
2019-04-07T07:45:44.951Z,12.50
2019-04-07T07:48:14.455Z,12.80
2019-04-07T07:50:47.041Z,13.00
2019-04-07T07:53:19.185Z,13.10
2019-04-07T07:55:51.239Z,13.30
2019-04-07T07:58:21.080Z,13.60
2019-04-07T08:00:51.474Z,13.80
2019-04-07T08:03:22.920Z,13.50
2019-04-07T08:05:59.034Z,13.40
2019-04-07T08:08:32.217Z,13.70
2019-04-07T08:11:03.284Z,13.70
2019-04-07T08:13:42.123Z,13.90
2019-04-07T08:16:08.697Z,14.00
2019-04-07T08:18:43.354Z,13.90
2019-04-07T08:21:17.155Z,14.00
2019-04-07T08:23:45.642Z,13.90
2019-04-07T08:26:16.454Z,14.00
2019-04-07T08:28:48.219Z,14.30
2019-04-07T08:31:21.457Z,14.30
2019-04-07T08:33:51.833Z,14.30
2019-04-07T08:36:27.701Z,14.20
2019-04-07T08:38:59.564Z,14.20
2019-04-07T08:41:34.669Z,14.40
2019-04-07T08:44:09.494Z,14.50
2019-04-07T08:46:41.679Z,14.50
2019-04-07T08:49:12.761Z,14.50
2019-04-07T08:51:42.718Z,14.40
2019-04-07T08:54:24.649Z,14.30
2019-04-07T08:57:01.388Z,14.30
2019-04-07T08:59:30.250Z,14.30
2019-04-07T09:02:04.285Z,14.30
2019-04-07T09:04:36.623Z,14.40
2019-04-07T09:07:10.292Z,14.40
2019-04-07T09:09:48.701Z,14.50
2019-04-07T09:12:30.792Z,14.60
2019-04-07T09:15:03.144Z,14.50
2019-04-07T09:17:45.970Z,14.50
2019-04-07T09:20:14.660Z,14.30
2019-04-07T09:22:47.449Z,14.10
2019-04-07T09:28:45.361Z,14.30
2019-04-07T09:31:17.493Z,14.40
2019-04-07T09:33:51.828Z,14.50
2019-04-07T09:36:27.662Z,14.60
2019-04-07T09:39:22.484Z,14.50
2019-04-07T09:42:14.804Z,14.50
2019-04-07T09:44:57.403Z,14.70
2019-04-07T09:47:47.755Z,14.70
2019-04-07T09:50:34.622Z,14.80
2019-04-07T09:53:23.017Z,14.80
2019-04-07T09:56:03.806Z,14.90
2019-04-07T09:58:48.510Z,14.70
2019-04-07T10:01:27.661Z,14.80
2019-04-07T10:04:07.339Z,15.00
2019-04-07T10:06:59.059Z,14.90
2019-04-07T10:09:30.082Z,15.00
2019-04-07T10:12:20.132Z,15.00
2019-04-07T10:15:11.785Z,15.00
2019-04-07T10:18:08.667Z,15.00
2019-04-07T10:20:59.910Z,15.00
2019-04-07T10:32:18.898Z,14.80
2019-04-07T10:34:56.671Z,15.00
2019-04-07T10:37:42.804Z,15.10
2019-04-07T10:40:35.493Z,15.20
2019-04-07T10:43:21.480Z,15.30
2019-04-07T10:45:53.882Z,15.30
2019-04-07T10:48:42.135Z,15.40
2019-04-07T10:51:16.394Z,15.60
2019-04-07T10:54:04.851Z,15.70
2019-04-07T10:56:57.290Z,15.80
2019-04-07T10:59:40.566Z,15.70
2019-04-07T11:02:18.148Z,15.60
2019-04-07T11:05:10.377Z,15.70
2019-04-07T11:07:48.269Z,15.70
2019-04-07T11:10:32.566Z,15.90
2019-04-07T11:13:01.906Z,15.90
2019-04-07T11:19:00.379Z,15.60
2019-04-07T11:21:42.569Z,15.80
2019-04-07T11:24:31.599Z,15.90
2019-04-07T11:30:14.675Z,16.20
2019-04-07T11:32:53.366Z,16.20
2019-04-07T11:35:36.918Z,16.10
2019-04-07T11:38:23.953Z,16.10
2019-04-07T11:41:04.319Z,16.20
2019-04-07T11:43:40.786Z,16.40
2019-04-07T11:46:17.486Z,16.40
2019-04-07T11:48:54.845Z,16.50
2019-04-07T11:51:28.275Z,16.30
2019-04-07T11:54:14.379Z,16.30
2019-04-07T11:56:46.019Z,16.10
2019-04-07T11:59:21.958Z,16.20
2019-04-07T12:01:53.072Z,16.50
2019-04-07T12:04:30.590Z,16.60
2019-04-07T12:07:02.447Z,16.70
2019-04-07T12:09:59.640Z,16.70
2019-04-07T12:12:37.492Z,16.60
2019-04-07T12:15:29.995Z,16.50
2019-04-07T12:18:08.739Z,16.50
2019-04-07T12:20:56.259Z,16.50
2019-04-07T12:23:30.702Z,16.50
2019-04-07T12:26:12.871Z,16.70
2019-04-07T12:28:47.610Z,16.70
2019-04-07T12:31:24.905Z,16.80
2019-04-07T12:34:14.110Z,16.90
2019-04-07T12:37:06.493Z,17.10
2019-04-07T12:39:53.408Z,17.00
2019-04-07T12:42:39.545Z,17.10
2019-04-07T12:45:14.431Z,17.20
2019-04-07T12:48:06.869Z,17.30
2019-04-07T12:50:49.848Z,17.30
2019-04-07T12:53:26.658Z,17.40
2019-04-07T12:56:00.297Z,17.40
2019-04-07T13:01:37.107Z,17.60
2019-04-07T13:04:15.452Z,17.80
2019-04-07T13:07:05.087Z,17.80
2019-04-07T13:09:46.135Z,17.90
2019-04-07T13:12:32.213Z,18.00
2019-04-07T13:15:11.167Z,17.80
2019-04-07T13:18:03.630Z,17.80
2019-04-07T13:20:51.253Z,17.90
2019-04-07T13:23:32.935Z,18.10
2019-04-07T13:26:07.712Z,18.50
2019-04-07T13:28:54.903Z,18.40
2019-04-07T13:31:39.572Z,18.70
2019-04-07T13:34:24.800Z,19.30
2019-04-07T13:36:59.026Z,19.90
2019-04-07T13:39:36.632Z,20.10
2019-04-07T13:42:10.233Z,19.90
2019-04-07T13:44:46.708Z,19.60
2019-04-07T13:47:23.342Z,19.60
2019-04-07T13:50:00.908Z,19.50
2019-04-07T13:52:33.430Z,19.80
2019-04-07T13:55:21.912Z,19.90
2019-04-07T13:57:59.565Z,19.70
2019-04-07T14:00:40.428Z,19.20
2019-04-07T14:03:29.095Z,19.10
2019-04-07T14:06:03.419Z,19.50
2019-04-07T14:08:51.706Z,19.50
2019-04-07T14:11:23.068Z,19.30
2019-04-07T14:14:06.891Z,19.00
2019-04-07T14:16:55.874Z,18.80
2019-04-07T14:19:28.837Z,18.50
2019-04-07T14:22:04.294Z,18.10
2019-04-07T14:24:59.530Z,18.10
2019-04-07T14:27:36.250Z,18.20
2019-04-07T14:30:11.379Z,18.30
2019-04-07T14:33:03.389Z,18.40
2019-04-07T14:35:35.763Z,18.70
2019-04-07T14:38:14.700Z,18.70
2019-04-07T14:40:45.701Z,18.30
2019-04-07T14:43:29.940Z,18.00
2019-04-07T14:46:17.329Z,18.10
2019-04-07T14:49:13.482Z,18.10
2019-04-07T14:51:49.909Z,18.00
2019-04-07T14:54:30.758Z,17.70
2019-04-07T14:57:07.340Z,17.60
2019-04-07T14:59:38.426Z,17.60
2019-04-07T15:05:00.905Z,17.40
2019-04-07T15:07:51.436Z,17.40
2019-04-07T15:10:22.750Z,17.40
2019-04-07T15:12:58.858Z,17.30
2019-04-07T15:15:30.313Z,17.30
2019-04-07T15:18:03.571Z,17.30
2019-04-07T15:20:35.984Z,17.30
2019-04-07T15:23:05.523Z,17.30
2019-04-07T15:25:36.585Z,17.30
2019-04-07T15:28:12.321Z,17.30
2019-04-07T15:30:46.011Z,17.40
2019-04-07T15:33:17.779Z,17.40
2019-04-07T15:35:50.137Z,17.40
2019-04-07T15:38:24.841Z,17.30
2019-04-07T15:40:59.822Z,17.40
2019-04-07T15:43:33.321Z,17.40
2019-04-07T15:46:03.658Z,17.50
2019-04-07T15:48:38.842Z,17.60
2019-04-07T15:51:13.342Z,17.60
2019-04-07T15:53:46.520Z,17.50
2019-04-07T15:56:20.758Z,17.30
2019-04-07T15:58:59.101Z,17.20
2019-04-07T16:01:28.367Z,17.00
2019-04-07T16:04:00.160Z,16.90
2019-04-07T16:06:38.805Z,16.80
2019-04-07T16:12:09.961Z,16.60
2019-04-07T16:14:57.913Z,16.50
2019-04-07T16:17:34.764Z,16.50
2019-04-07T16:20:22.247Z,16.40
2019-04-07T16:22:47.646Z,16.40
2019-04-07T16:25:16.917Z,16.40
2019-04-07T16:27:52.560Z,16.40
2019-04-07T16:30:24.823Z,16.30
2019-04-07T16:33:02.559Z,16.30
2019-04-07T16:35:34.656Z,16.30
2019-04-07T16:38:05.382Z,16.30
2019-04-07T16:40:35.994Z,16.20
2019-04-07T16:43:15.073Z,16.20
2019-04-07T16:45:48.463Z,16.10
2019-04-07T16:48:26.120Z,16.10
2019-04-07T16:50:57.921Z,16.10
2019-04-07T16:56:28.689Z,16.00
2019-04-07T16:59:01.281Z,16.00
2019-04-07T17:01:35.455Z,15.90
2019-04-07T17:04:06.875Z,15.90
2019-04-07T17:06:36.420Z,15.90
2019-04-07T17:09:13.660Z,15.90
2019-04-07T17:11:46.067Z,15.80
2019-04-07T17:14:20.815Z,15.70
2019-04-07T17:17:00.984Z,15.80
2019-04-07T17:19:30.727Z,15.80
2019-04-07T17:22:01.707Z,15.70
2019-04-07T17:24:35.348Z,15.70
2019-04-07T17:27:11.760Z,15.60
2019-04-07T17:29:43.628Z,15.60
2019-04-07T17:32:16.917Z,15.60
2019-04-07T17:34:46.910Z,15.60
2019-04-07T17:37:16.521Z,15.60
2019-04-07T17:39:51.431Z,15.60
2019-04-07T17:42:23.539Z,15.50
2019-04-07T17:45:02.095Z,15.50
2019-04-07T17:47:37.070Z,15.40
2019-04-07T17:50:20.042Z,15.40
2019-04-07T17:52:52.324Z,15.40
2019-04-07T17:55:43.065Z,15.40
2019-04-07T17:58:22.550Z,15.30
2019-04-07T18:01:14.261Z,15.30
2019-04-07T18:03:47.332Z,15.30
2019-04-07T18:06:38.682Z,15.20
2019-04-07T18:09:23.419Z,15.10
2019-04-07T18:12:15.703Z,15.10
2019-04-07T18:15:09.613Z,15.00
2019-04-07T18:17:44.539Z,14.90
2019-04-07T18:20:36.311Z,14.70
2019-04-07T18:23:28.906Z,14.60
2019-04-07T18:26:06.225Z,14.50
2019-04-07T18:28:55.198Z,14.50
2019-04-07T18:31:36.156Z,14.30
2019-04-07T18:34:25.123Z,14.30
2019-04-07T18:36:54.213Z,14.10
2019-04-07T18:39:34.161Z,14.10
2019-04-07T18:42:17.793Z,14.00
2019-04-07T18:45:07.913Z,13.90
2019-04-07T18:47:41.666Z,13.90
2019-04-07T18:50:12.843Z,13.80
2019-04-07T18:52:44.550Z,13.80
2019-04-07T18:55:26.118Z,14.00
2019-04-07T18:58:12.707Z,14.00
2019-04-07T19:00:57.639Z,14.00
2019-04-07T19:03:51.946Z,13.80
2019-04-07T19:06:26.668Z,13.80
2019-04-07T19:09:02.088Z,13.70
2019-04-07T19:12:01.370Z,13.50
2019-04-07T19:14:46.086Z,13.50
2019-04-07T19:17:22.537Z,13.40
2019-04-07T19:20:11.657Z,13.40
2019-04-07T19:22:49.040Z,13.50
2019-04-07T19:25:20.328Z,13.50
2019-04-07T19:28:12.283Z,13.40
2019-04-07T19:33:47.477Z,13.50
2019-04-07T19:39:39.290Z,13.40
2019-04-07T19:42:22.768Z,13.30
2019-04-07T19:44:56.270Z,13.20
2019-04-07T19:47:39.976Z,13.20
2019-04-07T19:50:11.577Z,13.10
2019-04-07T19:52:54.879Z,13.10
2019-04-07T19:55:43.333Z,13.10
2019-04-07T19:58:20.302Z,13.00
2019-04-07T20:01:09.107Z,13.00
2019-04-07T20:03:46.030Z,12.90
2019-04-07T20:06:24.812Z,12.90
2019-04-07T20:09:11.608Z,12.90
2019-04-07T20:11:44.348Z,12.90
2019-04-07T20:14:48.006Z,13.00
2019-04-07T20:17:31.008Z,13.10
2019-04-07T20:20:17.407Z,13.10
2019-04-07T20:22:49.643Z,13.10
2019-04-07T20:25:23.362Z,13.00
2019-04-07T20:28:03.576Z,12.90
2019-04-07T20:30:38.111Z,12.80
2019-04-07T20:33:22.741Z,12.70
2019-04-07T20:35:59.259Z,12.60
2019-04-07T20:38:40.135Z,12.60
2019-04-07T20:41:24.651Z,12.50
2019-04-07T20:44:14.395Z,12.40
2019-04-07T20:49:41.163Z,12.60
2019-04-07T20:52:26.171Z,12.90
2019-04-07T20:55:13.293Z,12.90
2019-04-07T20:58:14.463Z,13.00
2019-04-07T21:00:38.151Z,13.10
2019-04-07T21:03:29.614Z,13.00
2019-04-07T21:06:07.187Z,12.90
2019-04-07T21:08:45.540Z,12.80
2019-04-07T21:11:17.255Z,12.70
2019-04-07T21:13:54.766Z,12.90
2019-04-07T21:16:44.327Z,12.90
2019-04-07T21:19:38.317Z,12.90
2019-04-07T21:22:13.976Z,12.80
2019-04-07T21:25:03.946Z,12.70
2019-04-07T21:27:40.841Z,12.70
2019-04-07T21:30:17.362Z,12.50
2019-04-07T21:32:52.582Z,12.40
2019-04-07T21:35:35.361Z,12.50
2019-04-07T21:38:25.839Z,12.50
2019-04-07T21:41:26.431Z,12.50
2019-04-07T21:44:15.902Z,12.40
2019-04-07T21:47:04.317Z,12.40
2019-04-07T21:49:39.413Z,12.40
2019-04-07T21:55:23.316Z,12.40
2019-04-07T21:58:14.625Z,12.30
2019-04-07T22:00:50.996Z,12.20
2019-04-07T22:03:39.732Z,12.10
2019-04-07T22:06:20.252Z,12.10
2019-04-07T22:08:51.819Z,12.00
2019-04-07T22:11:24.701Z,12.00
2019-04-07T22:13:55.371Z,11.90
2019-04-07T22:16:25.533Z,11.90
2019-04-07T22:18:56.822Z,11.80
2019-04-07T22:21:26.057Z,11.80
2019-04-07T22:23:55.148Z,11.80
2019-04-07T22:26:26.384Z,11.80
2019-04-07T22:28:59.952Z,11.80
2019-04-07T22:31:33.539Z,11.80
2019-04-07T22:34:04.559Z,11.80
2019-04-07T22:36:35.658Z,11.80
2019-04-07T22:39:06.194Z,11.80
2019-04-07T22:41:41.243Z,11.80
2019-04-07T22:44:25.092Z,11.80
2019-04-07T22:46:52.748Z,11.70
2019-04-07T22:49:23.372Z,11.70
2019-04-07T22:51:56.297Z,11.60
2019-04-07T22:54:30.987Z,11.60
2019-04-07T22:57:03.546Z,11.60
2019-04-07T22:59:33.178Z,11.50
2019-04-07T23:02:03.273Z,11.50
2019-04-07T23:04:34.294Z,11.50
2019-04-07T23:07:04.203Z,11.40
2019-04-07T23:09:39.069Z,11.30
2019-04-07T23:12:08.498Z,11.30
2019-04-07T23:14:40.145Z,11.20
2019-04-07T23:17:11.971Z,11.10
2019-04-07T23:19:41.976Z,11.10
2019-04-07T23:22:11.786Z,11.00
2019-04-07T23:24:41.959Z,11.10
2019-04-07T23:27:12.701Z,11.10
2019-04-07T23:29:42.403Z,11.10
2019-04-07T23:32:11.691Z,11.10
2019-04-07T23:34:41.533Z,11.10
2019-04-07T23:37:10.647Z,11.10
2019-04-07T23:39:41.891Z,11.10
2019-04-07T23:42:11.078Z,11.10
2019-04-07T23:44:40.202Z,11.00
2019-04-07T23:47:09.994Z,11.10
2019-04-07T23:49:42.639Z,11.20
2019-04-07T23:52:11.803Z,11.20
2019-04-07T23:54:42.570Z,11.20
2019-04-07T23:57:12.021Z,11.10
2019-04-07T23:59:41.989Z,11.00
